sensor_id;sensor_type;location;lat;lon;timestamp;pressure;altitude;pressure_sealevel;temperature;humidity
67397;BME280;57728;50.448;18.824;2023-01-27T00:00:32;97989.28;;;2.33;67.31
67397;BME280;57728;50.448;18.824;2023-01-27T00:02:34;97984.59;;;2.35;67.43
67397;BME280;57728;50.448;18.824;2023-01-27T00:04:35;97971.66;;;2.30;67.35
67397;BME280;57728;50.448;18.824;2023-01-27T00:06:38;97897.78;;;1.88;67.22
67397;BME280;57728;50.448;18.824;2023-01-27T00:08:39;97971.84;;;2.29;67.49
67397;BME280;57728;50.448;18.824;2023-01-27T00:10:41;97963.63;;;2.30;67.23
67397;BME280;57728;50.448;18.824;2023-01-27T00:12:46;97973.16;;;2.33;67.32
67397;BME280;57728;50.448;18.824;2023-01-27T00:15:08;97995.56;;;2.48;67.18
67397;BME280;57728;50.448;18.824;2023-01-27T00:17:11;97897.78;;;1.88;67.17
67397;BME280;57728;50.448;18.824;2023-01-27T00:19:14;97979.22;;;2.35;67.23
67397;BME280;57728;50.448;18.824;2023-01-27T00:21:19;97968.81;;;2.32;67.07
67397;BME280;57728;50.448;18.824;2023-01-27T00:23:39;97974.34;;;2.30;67.17
67397;BME280;57728;50.448;18.824;2023-01-27T00:26:05;97999.78;;;2.43;67.05
67397;BME280;57728;50.448;18.824;2023-01-27T00:28:08;97950.00;;;2.09;67.04
67397;BME280;57728;50.448;18.824;2023-01-27T00:30:10;97932.16;;;1.93;67.17
67397;BME280;57728;50.448;18.824;2023-01-27T00:32:13;97996.97;;;2.36;67.35
67397;BME280;57728;50.448;18.824;2023-01-27T00:34:33;97987.50;;;2.25;67.39
67397;BME280;57728;50.448;18.824;2023-01-27T00:36:40;97991.78;;;2.34;67.50
67397;BME280;57728;50.448;18.824;2023-01-27T00:38:43;97986.31;;;2.28;67.52
67397;BME280;57728;50.448;18.824;2023-01-27T00:40:44;97999.66;;;2.36;67.47
67397;BME280;57728;50.448;18.824;2023-01-27T00:43:06;97999.84;;;2.34;67.41
67397;BME280;57728;50.448;18.824;2023-01-27T00:45:08;97968.09;;;2.15;67.56
67397;BME280;57728;50.448;18.824;2023-01-27T00:47:28;97991.50;;;2.29;67.51
67397;BME280;57728;50.448;18.824;2023-01-27T00:49:30;97986.47;;;2.26;67.53
67397;BME280;57728;50.448;18.824;2023-01-27T00:51:32;97991.19;;;2.24;67.75
67397;BME280;57728;50.448;18.824;2023-01-27T00:53:36;97958.13;;;2.00;67.81
67397;BME280;57728;50.448;18.824;2023-01-27T00:55:38;97989.41;;;2.16;67.88
67397;BME280;57728;50.448;18.824;2023-01-27T00:57:41;97979.69;;;2.15;67.78
67397;BME280;57728;50.448;18.824;2023-01-27T00:59:42;97945.09;;;1.89;67.78
67397;BME280;57728;50.448;18.824;2023-01-27T01:01:44;97985.53;;;2.19;67.83
67397;BME280;57728;50.448;18.824;2023-01-27T01:03:47;97992.06;;;2.16;68.03
67397;BME280;57728;50.448;18.824;2023-01-27T01:05:49;97930.13;;;1.71;67.98
67397;BME280;57728;50.448;18.824;2023-01-27T01:07:50;97918.81;;;1.53;68.00
67397;BME280;57728;50.448;18.824;2023-01-27T01:09:53;97965.63;;;1.82;68.10
67397;BME280;57728;50.448;18.824;2023-01-27T01:11:55;98002.63;;;1.95;68.25
67397;BME280;57728;50.448;18.824;2023-01-27T01:13:57;97972.34;;;1.78;68.65
67397;BME280;57728;50.448;18.824;2023-01-27T01:16:17;97982.72;;;1.81;68.54
67397;BME280;57728;50.448;18.824;2023-01-27T01:18:20;98006.81;;;1.97;68.61
67397;BME280;57728;50.448;18.824;2023-01-27T01:20:22;97999.94;;;1.95;68.63
67397;BME280;57728;50.448;18.824;2023-01-27T01:22:25;98007.16;;;1.94;68.85
67397;BME280;57728;50.448;18.824;2023-01-27T01:24:27;97935.75;;;1.53;68.71
67397;BME280;57728;50.448;18.824;2023-01-27T01:26:28;97981.00;;;1.88;68.83
67397;BME280;57728;50.448;18.824;2023-01-27T01:28:31;97997.56;;;2.00;68.76
67397;BME280;57728;50.448;18.824;2023-01-27T01:30:34;98003.13;;;1.98;68.88
67397;BME280;57728;50.448;18.824;2023-01-27T01:32:39;97984.72;;;1.87;68.71
67397;BME280;57728;50.448;18.824;2023-01-27T01:34:42;97966.16;;;1.77;68.85
67397;BME280;57728;50.448;18.824;2023-01-27T01:36:44;97922.00;;;1.48;68.80
67397;BME280;57728;50.448;18.824;2023-01-27T01:38:46;97999.13;;;1.94;69.19
67397;BME280;57728;50.448;18.824;2023-01-27T01:40:49;97984.91;;;1.85;69.00
67397;BME280;57728;50.448;18.824;2023-01-27T01:42:56;97932.25;;;1.53;68.93
67397;BME280;57728;50.448;18.824;2023-01-27T01:47:34;97976.94;;;1.69;69.06
67397;BME280;57728;50.448;18.824;2023-01-27T01:49:39;97988.50;;;1.69;69.27
67397;BME280;57728;50.448;18.824;2023-01-27T01:51:48;97977.50;;;1.56;69.32
67397;BME280;57728;50.448;18.824;2023-01-27T01:54:29;97996.72;;;1.68;69.29
67397;BME280;57728;50.448;18.824;2023-01-27T02:01:34;97894.19;;;1.10;69.81
67397;BME280;57728;50.448;18.824;2023-01-27T02:03:39;97995.19;;;1.74;69.62
67397;BME280;57728;50.448;18.824;2023-01-27T02:05:44;97967.41;;;1.58;69.71
67397;BME280;57728;50.448;18.824;2023-01-27T02:08:20;97998.53;;;1.76;69.47
67397;BME280;57728;50.448;18.824;2023-01-27T02:10:24;97988.63;;;1.76;69.63
67397;BME280;57728;50.448;18.824;2023-01-27T02:12:26;97973.47;;;1.60;69.50
67397;BME280;57728;50.448;18.824;2023-01-27T02:14:28;97891.31;;;1.19;69.47
67397;BME280;57728;50.448;18.824;2023-01-27T02:16:31;97951.50;;;1.57;69.43
67397;BME280;57728;50.448;18.824;2023-01-27T02:18:33;97979.09;;;1.74;69.59
67397;BME280;57728;50.448;18.824;2023-01-27T02:20:44;97963.88;;;1.66;69.61
67397;BME280;57728;50.448;18.824;2023-01-27T02:25:37;97973.72;;;1.74;69.69
67397;BME280;57728;50.448;18.824;2023-01-27T02:27:45;97911.50;;;1.38;69.34
67397;BME280;57728;50.448;18.824;2023-01-27T02:29:47;97973.34;;;1.77;69.47
67397;BME280;57728;50.448;18.824;2023-01-27T02:31:48;97950.97;;;1.61;69.50
67397;BME280;57728;50.448;18.824;2023-01-27T02:33:57;97884.09;;;1.20;69.44
67397;BME280;57728;50.448;18.824;2023-01-27T02:36:07;97972.16;;;1.79;69.54
67397;BME280;57728;50.448;18.824;2023-01-27T02:38:16;97910.31;;;1.41;69.53
67397;BME280;57728;50.448;18.824;2023-01-27T02:40:20;97957.25;;;1.77;69.54
67397;BME280;57728;50.448;18.824;2023-01-27T02:42:24;97919.31;;;1.48;69.28
67397;BME280;57728;50.448;18.824;2023-01-27T02:44:25;97974.00;;;1.87;69.33
67397;BME280;57728;50.448;18.824;2023-01-27T02:46:28;97934.03;;;1.61;69.31
67397;BME280;57728;50.448;18.824;2023-01-27T02:48:30;97962.28;;;1.80;69.03
67397;BME280;57728;50.448;18.824;2023-01-27T02:50:32;97898.44;;;1.35;69.33
67397;BME280;57728;50.448;18.824;2023-01-27T02:52:34;97960.59;;;1.79;69.18
67397;BME280;57728;50.448;18.824;2023-01-27T02:54:35;97938.84;;;1.65;69.07
67397;BME280;57728;50.448;18.824;2023-01-27T02:56:37;97869.22;;;1.17;69.02
67397;BME280;57728;50.448;18.824;2023-01-27T02:58:41;97960.00;;;1.68;69.17
67397;BME280;57728;50.448;18.824;2023-01-27T03:00:47;97916.72;;;1.40;69.18
67397;BME280;57728;50.448;18.824;2023-01-27T03:02:49;97942.63;;;1.56;69.24
67397;BME280;57728;50.448;18.824;2023-01-27T03:04:51;97900.81;;;1.30;69.20
67397;BME280;57728;50.448;18.824;2023-01-27T03:06:53;97880.31;;;1.06;69.06
67397;BME280;57728;50.448;18.824;2023-01-27T03:08:55;97979.75;;;1.76;69.11
67397;BME280;57728;50.448;18.824;2023-01-27T03:10:57;97972.09;;;1.64;69.04
67397;BME280;57728;50.448;18.824;2023-01-27T03:12:59;97947.31;;;1.54;69.13
67397;BME280;57728;50.448;18.824;2023-01-27T03:15:00;97997.88;;;1.74;68.82
67397;BME280;57728;50.448;18.824;2023-01-27T03:17:21;97994.34;;;1.73;68.79
67397;BME280;57728;50.448;18.824;2023-01-27T03:19:42;97969.41;;;1.64;68.79
67397;BME280;57728;50.448;18.824;2023-01-27T03:21:53;97963.06;;;1.57;68.74
67397;BME280;57728;50.448;18.824;2023-01-27T03:23:57;97997.69;;;1.75;68.77
67397;BME280;57728;50.448;18.824;2023-01-27T03:25:59;97980.97;;;1.65;68.62
67397;BME280;57728;50.448;18.824;2023-01-27T03:28:03;97968.44;;;1.57;68.35
67397;BME280;57728;50.448;18.824;2023-01-27T03:30:15;97971.78;;;1.59;68.37
67397;BME280;57728;50.448;18.824;2023-01-27T03:32:29;98003.91;;;1.76;68.43
67397;BME280;57728;50.448;18.824;2023-01-27T03:34:58;97987.47;;;1.70;68.29
67397;BME280;57728;50.448;18.824;2023-01-27T03:37:08;97999.88;;;1.80;68.22
67397;BME280;57728;50.448;18.824;2023-01-27T03:39:29;97999.50;;;1.83;68.19
67397;BME280;57728;50.448;18.824;2023-01-27T03:41:49;97995.81;;;1.84;68.08
67397;BME280;57728;50.448;18.824;2023-01-27T03:44:11;98002.66;;;1.86;67.96
67397;BME280;57728;50.448;18.824;2023-01-27T03:46:32;98007.03;;;1.87;67.81
67397;BME280;57728;50.448;18.824;2023-01-27T03:48:34;97984.41;;;1.82;68.02
67397;BME280;57728;50.448;18.824;2023-01-27T03:50:38;97971.22;;;1.72;67.98
67397;BME280;57728;50.448;18.824;2023-01-27T03:52:42;97989.31;;;1.78;67.76
67397;BME280;57728;50.448;18.824;2023-01-27T03:55:03;97995.81;;;1.84;67.74
67397;BME280;57728;50.448;18.824;2023-01-27T03:57:05;98004.88;;;1.83;67.54
67397;BME280;57728;50.448;18.824;2023-01-27T03:59:07;97929.97;;;1.33;67.79
67397;BME280;57728;50.448;18.824;2023-01-27T04:01:18;98000.19;;;1.77;67.59
67397;BME280;57728;50.448;18.824;2023-01-27T04:03:23;97999.22;;;1.69;67.52
67397;BME280;57728;50.448;18.824;2023-01-27T04:05:45;97985.91;;;1.53;67.64
67397;BME280;57728;50.448;18.824;2023-01-27T04:08:05;97998.59;;;1.59;67.55
67397;BME280;57728;50.448;18.824;2023-01-27T04:10:08;97992.78;;;1.56;67.57
67397;BME280;57728;50.448;18.824;2023-01-27T04:12:10;97968.50;;;1.41;67.44
67397;BME280;57728;50.448;18.824;2023-01-27T04:14:12;97915.31;;;1.05;67.42
67397;BME280;57728;50.448;18.824;2023-01-27T04:16:14;97994.59;;;1.55;67.49
67397;BME280;57728;50.448;18.824;2023-01-27T04:18:17;98004.31;;;1.56;67.44
67397;BME280;57728;50.448;18.824;2023-01-27T04:20:19;97951.47;;;1.25;67.34
67397;BME280;57728;50.448;18.824;2023-01-27T04:22:21;97983.25;;;1.45;67.41
67397;BME280;57728;50.448;18.824;2023-01-27T04:24:23;97999.63;;;1.58;67.38
67397;BME280;57728;50.448;18.824;2023-01-27T04:26:25;97875.03;;;0.81;67.40
67397;BME280;57728;50.448;18.824;2023-01-27T04:28:33;98002.78;;;1.62;67.48
67397;BME280;57728;50.448;18.824;2023-01-27T04:30:36;97982.72;;;1.49;67.24
67397;BME280;57728;50.448;18.824;2023-01-27T04:32:37;98004.31;;;1.64;67.05
67397;BME280;57728;50.448;18.824;2023-01-27T04:34:40;97920.53;;;1.06;67.02
67397;BME280;57728;50.448;18.824;2023-01-27T04:36:42;97940.28;;;1.13;67.12
67397;BME280;57728;50.448;18.824;2023-01-27T04:38:45;97974.50;;;1.43;67.14
67397;BME280;57728;50.448;18.824;2023-01-27T04:40:47;98000.28;;;1.60;67.20
67397;BME280;57728;50.448;18.824;2023-01-27T04:42:52;98002.97;;;1.60;66.95
67397;BME280;57728;50.448;18.824;2023-01-27T04:44:54;97982.56;;;1.43;67.06
67397;BME280;57728;50.448;18.824;2023-01-27T04:46:56;97980.91;;;1.42;67.10
67397;BME280;57728;50.448;18.824;2023-01-27T04:48:58;98004.16;;;1.58;67.00
67397;BME280;57728;50.448;18.824;2023-01-27T04:51:00;97977.56;;;1.40;66.93
67397;BME280;57728;50.448;18.824;2023-01-27T04:53:02;97994.63;;;1.47;66.84
67397;BME280;57728;50.448;18.824;2023-01-27T04:55:04;98013.38;;;1.55;67.23
67397;BME280;57728;50.448;18.824;2023-01-27T04:57:06;98010.06;;;1.53;67.10
67397;BME280;57728;50.448;18.824;2023-01-27T04:59:12;98018.41;;;1.50;66.92
67397;BME280;57728;50.448;18.824;2023-01-27T05:01:17;97966.41;;;1.19;67.08
67397;BME280;57728;50.448;18.824;2023-01-27T05:03:18;98010.72;;;1.47;67.08
67397;BME280;57728;50.448;18.824;2023-01-27T05:05:21;97967.41;;;1.18;66.90
67397;BME280;57728;50.448;18.824;2023-01-27T05:07:23;97945.16;;;1.01;66.79
67397;BME280;57728;50.448;18.824;2023-01-27T05:09:24;97997.00;;;1.42;66.84
67397;BME280;57728;50.448;18.824;2023-01-27T05:11:26;97984.44;;;1.34;66.88
67397;BME280;57728;50.448;18.824;2023-01-27T05:13:28;97964.53;;;1.20;66.91
67397;BME280;57728;50.448;18.824;2023-01-27T05:15:29;97976.56;;;1.32;66.67
67397;BME280;57728;50.448;18.824;2023-01-27T05:17:32;98001.03;;;1.46;66.68
67397;BME280;57728;50.448;18.824;2023-01-27T05:19:34;97991.13;;;1.46;66.66
67397;BME280;57728;50.448;18.824;2023-01-27T05:21:35;97997.13;;;1.48;66.62
67397;BME280;57728;50.448;18.824;2023-01-27T05:23:38;97982.28;;;1.37;66.26
67397;BME280;57728;50.448;18.824;2023-01-27T05:25:43;97980.25;;;1.31;66.20
67397;BME280;57728;50.448;18.824;2023-01-27T05:27:45;97911.38;;;0.92;66.23
67397;BME280;57728;50.448;18.824;2023-01-27T05:29:47;97969.22;;;1.26;66.20
67397;BME280;57728;50.448;18.824;2023-01-27T05:31:48;98011.59;;;1.47;66.10
67397;BME280;57728;50.448;18.824;2023-01-27T05:33:52;97976.41;;;1.34;66.34
67397;BME280;57728;50.448;18.824;2023-01-27T05:36:00;97989.63;;;1.44;65.92
67397;BME280;57728;50.448;18.824;2023-01-27T05:38:02;97921.03;;;1.01;65.88
67397;BME280;57728;50.448;18.824;2023-01-27T05:40:04;97983.28;;;1.28;65.92
67397;BME280;57728;50.448;18.824;2023-01-27T05:42:07;97946.34;;;0.99;66.06
67397;BME280;57728;50.448;18.824;2023-01-27T05:44:12;97995.72;;;1.21;65.68
67397;BME280;57728;50.448;18.824;2023-01-27T05:46:19;98012.13;;;1.34;65.77
67397;BME280;57728;50.448;18.824;2023-01-27T05:48:23;97952.56;;;0.91;65.85
67397;BME280;57728;50.448;18.824;2023-01-27T05:50:25;97998.94;;;1.16;65.77
67397;BME280;57728;50.448;18.824;2023-01-27T05:52:27;98021.53;;;1.30;65.83
67397;BME280;57728;50.448;18.824;2023-01-27T05:54:31;98008.13;;;1.22;65.69
67397;BME280;57728;50.448;18.824;2023-01-27T05:56:33;98025.22;;;1.29;65.79
67397;BME280;57728;50.448;18.824;2023-01-27T05:58:34;97947.41;;;0.81;65.60
67397;BME280;57728;50.448;18.824;2023-01-27T06:00:37;97994.75;;;1.06;65.40
67397;BME280;57728;50.448;18.824;2023-01-27T06:02:39;98013.34;;;1.07;65.47
67397;BME280;57728;50.448;18.824;2023-01-27T06:04:40;97983.75;;;0.92;65.59
67397;BME280;57728;50.448;18.824;2023-01-27T06:06:42;97979.38;;;0.91;65.57
67397;BME280;57728;50.448;18.824;2023-01-27T06:08:44;98028.91;;;1.20;65.40
67397;BME280;57728;50.448;18.824;2023-01-27T06:10:47;98013.03;;;1.02;65.33
67397;BME280;57728;50.448;18.824;2023-01-27T06:12:49;98038.97;;;1.18;65.42
67397;BME280;57728;50.448;18.824;2023-01-27T06:14:51;98038.16;;;1.17;65.22
67397;BME280;57728;50.448;18.824;2023-01-27T06:16:53;97961.97;;;0.71;65.19
67397;BME280;57728;50.448;18.824;2023-01-27T06:18:55;97968.19;;;0.71;65.27
67397;BME280;57728;50.448;18.824;2023-01-27T06:20:59;98024.59;;;1.02;65.17
67397;BME280;57728;50.448;18.824;2023-01-27T06:23:02;97958.13;;;0.65;65.20
67397;BME280;57728;50.448;18.824;2023-01-27T06:25:05;98031.47;;;1.05;65.10
67397;BME280;57728;50.448;18.824;2023-01-27T06:27:07;98052.03;;;1.21;65.33
67397;BME280;57728;50.448;18.824;2023-01-27T06:29:09;98003.84;;;0.96;65.22
67397;BME280;57728;50.448;18.824;2023-01-27T06:31:18;98020.22;;;1.10;65.00
67397;BME280;57728;50.448;18.824;2023-01-27T06:33:21;98019.88;;;1.13;64.95
67397;BME280;57728;50.448;18.824;2023-01-27T06:35:22;97997.97;;;0.93;64.62
67397;BME280;57728;50.448;18.824;2023-01-27T06:37:27;98046.16;;;1.26;64.93
67397;BME280;57728;50.448;18.824;2023-01-27T06:39:29;98031.13;;;1.08;64.59
67397;BME280;57728;50.448;18.824;2023-01-27T06:41:31;98043.34;;;1.11;64.79
67397;BME280;57728;50.448;18.824;2023-01-27T06:43:33;97996.47;;;0.82;64.72
67397;BME280;57728;50.448;18.824;2023-01-27T06:45:34;98037.34;;;1.00;64.70
67397;BME280;57728;50.448;18.824;2023-01-27T06:47:37;98022.25;;;0.91;65.04
67397;BME280;57728;50.448;18.824;2023-01-27T06:49:40;98072.50;;;1.22;64.95
67397;BME280;57728;50.448;18.824;2023-01-27T06:51:42;98014.06;;;0.84;64.86
67397;BME280;57728;50.448;18.824;2023-01-27T06:53:43;98043.38;;;1.02;64.63
67397;BME280;57728;50.448;18.824;2023-01-27T06:55:45;98056.25;;;1.07;64.67
67397;BME280;57728;50.448;18.824;2023-01-27T06:57:47;98077.00;;;1.22;64.97
67397;BME280;57728;50.448;18.824;2023-01-27T06:59:48;98058.09;;;1.07;64.83
67397;BME280;57728;50.448;18.824;2023-01-27T07:01:50;98058.59;;;1.10;64.96
67397;BME280;57728;50.448;18.824;2023-01-27T07:03:52;98040.69;;;1.02;64.99
67397;BME280;57728;50.448;18.824;2023-01-27T07:05:53;98070.81;;;1.21;64.98
67397;BME280;57728;50.448;18.824;2023-01-27T07:07:55;98077.00;;;1.22;65.00
67397;BME280;57728;50.448;18.824;2023-01-27T07:09:57;98075.19;;;1.22;65.20
67397;BME280;57728;50.448;18.824;2023-01-27T07:12:00;98070.00;;;1.20;64.96
67397;BME280;57728;50.448;18.824;2023-01-27T07:14:03;98069.47;;;1.17;65.03
67397;BME280;57728;50.448;18.824;2023-01-27T07:16:05;98067.47;;;1.19;65.27
67397;BME280;57728;50.448;18.824;2023-01-27T07:18:06;98065.47;;;1.21;65.16
67397;BME280;57728;50.448;18.824;2023-01-27T07:20:12;98041.19;;;1.06;65.26
67397;BME280;57728;50.448;18.824;2023-01-27T07:22:13;98042.34;;;1.12;64.99
67397;BME280;57728;50.448;18.824;2023-01-27T07:24:14;98068.47;;;1.26;65.09
67397;BME280;57728;50.448;18.824;2023-01-27T07:26:17;98016.22;;;0.97;65.20
67397;BME280;57728;50.448;18.824;2023-01-27T07:28:18;98073.84;;;1.26;64.97
67397;BME280;57728;50.448;18.824;2023-01-27T07:30:20;98039.84;;;1.02;65.33
67397;BME280;57728;50.448;18.824;2023-01-27T07:32:22;98052.75;;;1.07;65.22
67397;BME280;57728;50.448;18.824;2023-01-27T07:34:24;98067.78;;;1.24;65.30
67397;BME280;57728;50.448;18.824;2023-01-27T07:36:25;98055.41;;;1.15;65.54
67397;BME280;57728;50.448;18.824;2023-01-27T07:38:27;98043.53;;;1.09;65.28
67397;BME280;57728;50.448;18.824;2023-01-27T07:40:29;98078.16;;;1.27;65.51
67397;BME280;57728;50.448;18.824;2023-01-27T07:42:30;98074.50;;;1.20;65.32
67397;BME280;57728;50.448;18.824;2023-01-27T07:44:34;98081.19;;;1.24;65.26
67397;BME280;57728;50.448;18.824;2023-01-27T07:46:35;98077.88;;;1.22;65.31
67397;BME280;57728;50.448;18.824;2023-01-27T07:48:37;98084.56;;;1.18;65.38
67397;BME280;57728;50.448;18.824;2023-01-27T07:50:40;97976.41;;;0.53;65.53
67397;BME280;57728;50.448;18.824;2023-01-27T07:52:44;98071.69;;;1.05;65.43
67397;BME280;57728;50.448;18.824;2023-01-27T07:54:45;98081.38;;;1.14;65.57
67397;BME280;57728;50.448;18.824;2023-01-27T07:56:47;98038.34;;;0.91;65.55
67397;BME280;57728;50.448;18.824;2023-01-27T07:58:49;98086.25;;;1.19;65.66
67397;BME280;57728;50.448;18.824;2023-01-27T08:00:53;98065.97;;;1.08;65.73
67397;BME280;57728;50.448;18.824;2023-01-27T08:02:56;97981.06;;;0.59;65.58
67397;BME280;57728;50.448;18.824;2023-01-27T08:05:00;97961.84;;;0.47;65.54
67397;BME280;57728;50.448;18.824;2023-01-27T08:07:01;98009.56;;;0.77;65.68
67397;BME280;57728;50.448;18.824;2023-01-27T08:09:04;98009.22;;;0.80;65.75
67397;BME280;57728;50.448;18.824;2023-01-27T08:11:09;97994.31;;;0.77;65.59
67397;BME280;57728;50.448;18.824;2023-01-27T08:13:14;97983.94;;;0.74;65.46
67397;BME280;57728;50.448;18.824;2023-01-27T08:15:16;98020.75;;;0.97;65.48
67397;BME280;57728;50.448;18.824;2023-01-27T08:17:18;98072.66;;;1.29;65.35
67397;BME280;57728;50.448;18.824;2023-01-27T08:19:20;98046.03;;;1.19;65.47
67397;BME280;57728;50.448;18.824;2023-01-27T08:21:22;98025.94;;;1.07;65.08
67397;BME280;57728;50.448;18.824;2023-01-27T08:23:25;98009.50;;;0.93;65.25
67397;BME280;57728;50.448;18.824;2023-01-27T08:25:27;97992.44;;;0.86;65.13
67397;BME280;57728;50.448;18.824;2023-01-27T08:27:29;98072.13;;;1.42;65.09
67397;BME280;57728;50.448;18.824;2023-01-27T08:29:30;98069.09;;;1.45;64.97
67397;BME280;57728;50.448;18.824;2023-01-27T08:31:33;98042.81;;;1.32;64.96
67397;BME280;57728;50.448;18.824;2023-01-27T08:33:35;98050.00;;;1.40;64.58
67397;BME280;57728;50.448;18.824;2023-01-27T08:35:37;97995.09;;;1.11;64.32
67397;BME280;57728;50.448;18.824;2023-01-27T08:37:42;98068.38;;;1.59;64.32
67397;BME280;57728;50.448;18.824;2023-01-27T08:39:46;98069.06;;;1.61;64.10
67397;BME280;57728;50.448;18.824;2023-01-27T08:41:47;98048.13;;;1.48;64.21
67397;BME280;57728;50.448;18.824;2023-01-27T08:43:49;98033.25;;;1.37;63.96
67397;BME280;57728;50.448;18.824;2023-01-27T08:45:51;98058.00;;;1.56;63.99
67397;BME280;57728;50.448;18.824;2023-01-27T08:47:53;98076.41;;;1.67;64.23
67397;BME280;57728;50.448;18.824;2023-01-27T08:49:54;98057.66;;;1.51;64.09
67397;BME280;57728;50.448;18.824;2023-01-27T08:51:56;98071.75;;;1.61;63.82
67397;BME280;57728;50.448;18.824;2023-01-27T08:53:58;98082.44;;;1.69;63.70
67397;BME280;57728;50.448;18.824;2023-01-27T08:56:04;97985.88;;;1.05;63.87
67397;BME280;57728;50.448;18.824;2023-01-27T08:58:08;98096.34;;;1.73;63.54
67397;BME280;57728;50.448;18.824;2023-01-27T09:00:10;98088.47;;;1.71;63.58
67397;BME280;57728;50.448;18.824;2023-01-27T09:02:12;98045.97;;;1.44;63.68
67397;BME280;57728;50.448;18.824;2023-01-27T09:04:15;98061.69;;;1.55;63.57
67397;BME280;57728;50.448;18.824;2023-01-27T09:06:17;98093.50;;;1.75;63.29
67397;BME280;57728;50.448;18.824;2023-01-27T09:08:19;98093.84;;;1.71;63.24
67397;BME280;57728;50.448;18.824;2023-01-27T09:10:21;98095.19;;;1.76;63.31
67397;BME280;57728;50.448;18.824;2023-01-27T09:12:23;98068.72;;;1.56;63.12
67397;BME280;57728;50.448;18.824;2023-01-27T09:14:24;98107.25;;;1.80;63.49
67397;BME280;57728;50.448;18.824;2023-01-27T09:16:27;98114.28;;;1.81;63.50
67397;BME280;57728;50.448;18.824;2023-01-27T09:18:29;98112.25;;;1.83;63.43
67397;BME280;57728;50.448;18.824;2023-01-27T09:20:31;98104.88;;;1.85;63.30
67397;BME280;57728;50.448;18.824;2023-01-27T09:22:37;98111.09;;;1.85;63.12
67397;BME280;57728;50.448;18.824;2023-01-27T09:24:40;98095.19;;;1.76;63.24
67397;BME280;57728;50.448;18.824;2023-01-27T09:26:41;98063.00;;;1.59;63.36
67397;BME280;57728;50.448;18.824;2023-01-27T09:28:43;98116.28;;;1.87;62.81
67397;BME280;57728;50.448;18.824;2023-01-27T09:30:45;98020.53;;;1.23;62.73
67397;BME280;57728;50.448;18.824;2023-01-27T09:32:47;98059.22;;;1.37;62.89
67397;BME280;57728;50.448;18.824;2023-01-27T09:34:49;98111.97;;;1.69;63.24
67397;BME280;57728;50.448;18.824;2023-01-27T09:36:55;98120.84;;;1.78;63.33
67397;BME280;57728;50.448;18.824;2023-01-27T09:39:06;98126.69;;;1.82;63.07
67397;BME280;57728;50.448;18.824;2023-01-27T09:41:33;98120.31;;;1.83;63.04
67397;BME280;57728;50.448;18.824;2023-01-27T09:51:37;98142.78;;;1.90;62.72
67397;BME280;57728;50.448;18.824;2023-01-27T09:56:39;98124.47;;;1.94;62.63
67397;BME280;57728;50.448;18.824;2023-01-27T09:59:18;98134.03;;;1.96;62.56
67397;BME280;57728;50.448;18.824;2023-01-27T10:01:46;98125.63;;;1.99;62.47
67397;BME280;57728;50.448;18.824;2023-01-27T10:08:51;98128.47;;;1.98;62.50
67397;BME280;57728;50.448;18.824;2023-01-27T10:11:55;98121.94;;;1.92;62.21
67397;BME280;57728;50.448;18.824;2023-01-27T10:16:54;98122.31;;;1.89;62.21
67397;BME280;57728;50.448;18.824;2023-01-27T10:19:37;98116.78;;;1.82;62.49
67397;BME280;57728;50.448;18.824;2023-01-27T10:26:47;98060.56;;;1.33;62.82
67397;BME280;57728;50.448;18.824;2023-01-27T10:29:00;98021.56;;;1.14;62.73
67397;BME280;57728;50.448;18.824;2023-01-27T10:32:08;98132.41;;;1.79;63.05
67397;BME280;57728;50.448;18.824;2023-01-27T10:34:31;98135.44;;;1.84;63.19
67397;BME280;57728;50.448;18.824;2023-01-27T10:36:49;98129.53;;;1.88;63.23
67397;BME280;57728;50.448;18.824;2023-01-27T10:39:27;98129.00;;;1.93;63.50
67397;BME280;57728;50.448;18.824;2023-01-27T10:41:58;98129.16;;;2.00;63.30
67397;BME280;57728;50.448;18.824;2023-01-27T10:46:56;98130.16;;;1.99;63.13
67397;BME280;57728;50.448;18.824;2023-01-27T10:52:22;98104.50;;;1.88;63.06
67397;BME280;57728;50.448;18.824;2023-01-27T10:54:32;98135.28;;;2.17;63.24
67397;BME280;57728;50.448;18.824;2023-01-27T10:56:44;98071.25;;;1.97;62.99
67397;BME280;57728;50.448;18.824;2023-01-27T11:01:31;98067.47;;;2.15;62.30
67397;BME280;57728;50.448;18.824;2023-01-27T11:03:59;98056.84;;;2.21;62.08
67397;BME280;57728;50.448;18.824;2023-01-27T11:06:20;98045.34;;;2.13;61.84
67397;BME280;57728;50.448;18.824;2023-01-27T11:08:30;98107.31;;;2.66;61.93
67397;BME280;57728;50.448;18.824;2023-01-27T11:10:40;97964.91;;;1.88;61.89
67397;BME280;57728;50.448;18.824;2023-01-27T11:13:07;98128.34;;;2.85;61.51
67397;BME280;57728;50.448;18.824;2023-01-27T11:17:36;98118.44;;;2.86;61.26
67397;BME280;57728;50.448;18.824;2023-01-27T11:25:22;98120.59;;;2.90;60.89
67397;BME280;57728;50.448;18.824;2023-01-27T11:30:03;98041.25;;;2.48;60.25
67397;BME280;57728;50.448;18.824;2023-01-27T11:32:17;98117.97;;;3.05;60.16
67397;BME280;57728;50.448;18.824;2023-01-27T11:34:56;98114.22;;;3.06;59.84
67397;BME280;57728;50.448;18.824;2023-01-27T11:37:17;98117.97;;;3.05;59.78
67397;BME280;57728;50.448;18.824;2023-01-27T11:39:21;98112.72;;;3.04;59.98
67397;BME280;57728;50.448;18.824;2023-01-27T11:41:24;98100.75;;;2.91;59.41
67397;BME280;57728;50.448;18.824;2023-01-27T11:43:27;98120.72;;;2.97;59.39
67397;BME280;57728;50.448;18.824;2023-01-27T11:45:34;98126.78;;;2.91;59.18
67397;BME280;57728;50.448;18.824;2023-01-27T11:47:40;98131.88;;;2.86;59.14
67397;BME280;57728;50.448;18.824;2023-01-27T11:49:47;98063.47;;;2.42;58.93
67397;BME280;57728;50.448;18.824;2023-01-27T11:51:59;97985.34;;;1.97;58.93
67397;BME280;57728;50.448;18.824;2023-01-27T11:56:44;98129.72;;;2.81;58.60
67397;BME280;57728;50.448;18.824;2023-01-27T11:58:56;98132.41;;;2.81;58.49
67397;BME280;57728;50.448;18.824;2023-01-27T12:01:20;98108.78;;;2.68;58.41
67397;BME280;57728;50.448;18.824;2023-01-27T12:05:47;98116.88;;;2.68;58.30